Time;durP1;ratioP1;P1;durP2;ratioP2;P2;SDS_P1;SDS_P2;PMS_P1;PMS_P2;Temp;Humidity;BMP_temperature;BMP_pressure;BME280_temperature;BME280_humidity;BME280_pressure;Samples;Min_cycle;Max_cycle;Signal;HPM_P1;HPM_P2
2021/12/24 00:02:16;;;;;;;28.98;12.33;;;;;;;-10.80;73.13;100920.34;1762768;81;21342;-81
2021/12/24 00:05:21;;;;;;;32.28;12.18;;;;;;;-10.79;73.45;100930.01;1763269;81;21348;-82
2021/12/24 00:08:26;;;;;;;32.88;13.13;;;;;;;-10.75;73.81;100933.02;1763299;81;21854;-81
2021/12/24 00:11:31;;;;;;;26.37;13.18;;;;;;;-10.68;74.02;100925.42;1763261;81;21277;-80
2021/12/24 00:14:41;;;;;;;24.75;11.25;;;;;;;-10.59;74.25;100923.89;1755807;80;21316;-81
2021/12/24 00:17:46;;;;;;;23.32;12.25;;;;;;;-10.51;74.42;100917.16;1754942;82;21217;-81
2021/12/24 00:37:49;;;;;;;29.87;12.80;;;;;;;-10.08;75.37;100893.32;1754970;82;21784;-79
2021/12/24 00:40:55;;;;;;;27.90;15.68;;;;;;;-10.08;75.57;100891.99;1755055;82;21704;-82
2021/12/24 00:44:00;;;;;;;35.15;15.68;;;;;;;-10.11;75.87;100885.47;1754788;82;21300;-79
2021/12/24 00:47:04;;;;;;;42.00;18.67;;;;;;;-10.16;76.25;100882.05;1754938;82;21356;-81
2021/12/24 00:50:13;;;;;;;41.65;19.17;;;;;;;-10.15;76.60;100875.84;1753322;82;21739;-82
2021/12/24 00:56:39;;;;;;;47.20;18.65;;;;;;;-10.22;77.27;100866.28;1754931;82;21154;-81
2021/12/24 00:59:44;;;;;;;44.03;19.10;;;;;;;-10.27;77.61;100860.25;1754957;82;21666;-82
2021/12/24 01:02:51;;;;;;;45.38;19.75;;;;;;;-10.30;77.94;100860.33;1754065;82;21276;-81
2021/12/24 01:05:57;;;;;;;41.53;20.17;;;;;;;-10.27;78.21;100859.38;1754975;82;21158;-80
2021/12/24 01:09:02;;;;;;;55.60;21.02;;;;;;;-10.24;78.41;100855.36;1754767;82;21181;-82
2021/12/24 01:12:07;;;;;;;41.00;18.42;;;;;;;-10.24;78.51;100861.52;1754723;82;21229;-79
2021/12/24 01:15:14;;;;;;;44.88;19.12;;;;;;;-10.20;78.69;100852.59;1753341;81;21293;-81
2021/12/24 01:18:37;;;;;;;45.67;19.55;;;;;;;-10.18;78.83;100845.93;1754841;82;21174;-80
2021/12/24 01:25:04;;;;;;;41.10;18.15;;;;;;;-10.10;79.18;100840.03;1755069;82;21153;-81
2021/12/24 01:38:21;;;;;;;42.35;19.45;;;;;;;-10.03;79.50;100819.13;1753788;82;21673;-80
2021/12/24 01:42:40;;;;;;;42.90;18.45;;;;;;;-10.07;79.68;100822.31;1753397;82;21312;-78
2021/12/24 01:44:30;;;;;;;45.45;18.17;;;;;;;-10.10;79.95;100813.11;1754946;82;21827;-79
2021/12/24 01:47:35;;;;;;;46.65;17.23;;;;;;;-10.10;80.20;100811.78;1754899;82;21328;-80
2021/12/24 01:50:48;;;;;;;42.30;16.10;;;;;;;-10.01;80.43;100807.20;1754925;82;21214;-79
2021/12/24 01:53:55;;;;;;;37.60;16.90;;;;;;;-9.96;80.47;100803.54;1755295;81;21838;-81
2021/12/24 01:57:00;;;;;;;44.77;17.77;;;;;;;-9.92;80.49;100797.27;1754925;82;21219;-80
2021/12/24 02:00:06;;;;;;;37.78;18.57;;;;;;;-9.90;80.58;100793.25;1754788;82;21828;-79
2021/12/24 02:03:14;;;;;;;50.03;17.23;;;;;;;-9.86;80.68;100783.02;1754887;82;21304;-79
2021/12/24 02:06:19;;;;;;;39.65;17.85;;;;;;;-9.83;80.80;100780.31;1754946;82;21272;-81
2021/12/24 02:09:24;;;;;;;51.60;17.75;;;;;;;-9.81;80.79;100777.16;1754993;82;21278;-79
2021/12/24 02:12:32;;;;;;;41.70;18.00;;;;;;;-9.83;80.80;100770.58;1754953;82;21854;-81
2021/12/24 02:28:54;;;;;;;51.63;20.77;;;;;;;-10.03;80.50;100746.34;1754786;82;21281;-78
2021/12/24 02:32:00;;;;;;;44.70;18.23;;;;;;;-10.16;80.44;100741.82;1738656;82;21289;-80
2021/12/24 02:35:06;;;;;;;48.83;19.37;;;;;;;-10.28;80.27;100735.50;1754690;82;21190;-81
2021/12/24 02:38:10;;;;;;;41.35;18.73;;;;;;;-10.42;80.18;100735.81;1754900;82;21858;-78
2021/12/24 02:41:15;;;;;;;41.37;17.02;;;;;;;-10.53;80.27;100735.66;1754600;82;21265;-80
2021/12/24 02:44:20;;;;;;;36.45;15.68;;;;;;;-10.65;80.30;100723.55;1754842;82;21300;-81
2021/12/24 02:54:11;;;;;;;29.07;14.03;;;;;;;-10.90;80.77;100714.83;1754689;82;21278;-79
2021/12/24 02:57:20;;;;;;;23.42;12.05;;;;;;;-10.98;80.87;100705.31;1754772;82;21312;-81
2021/12/24 03:00:26;;;;;;;29.45;13.05;;;;;;;-11.06;80.86;100701.48;1754820;82;21822;-80
2021/12/24 03:03:31;;;;;;;28.85;12.70;;;;;;;-11.15;80.77;100695.97;1754701;82;21214;-81
2021/12/24 03:06:38;;;;;;;23.98;12.58;;;;;;;-11.27;80.67;100685.64;1754757;82;21638;-81
2021/12/24 03:09:44;;;;;;;30.55;14.18;;;;;;;-11.35;80.76;100684.91;1754959;82;21854;-78
2021/12/24 03:12:52;;;;;;;29.20;12.73;;;;;;;-11.43;81.00;100677.58;1754848;82;21332;-81
2021/12/24 03:15:57;;;;;;;33.80;15.20;;;;;;;-11.48;81.30;100668.88;1754592;81;21328;-79
2021/12/24 03:19:03;;;;;;;27.65;14.70;;;;;;;-11.51;81.55;100661.90;1754616;82;21273;-78
2021/12/24 03:25:34;;;;;;;36.25;15.28;;;;;;;-11.55;82.06;100651.43;1754917;82;21178;-78
2021/12/24 03:28:38;;;;;;;33.38;14.00;;;;;;;-11.53;82.42;100648.30;1754903;82;21299;-79
2021/12/24 03:31:44;;;;;;;30.10;15.70;;;;;;;-11.56;82.69;100647.05;1754954;82;21289;-78
2021/12/24 03:34:51;;;;;;;28.00;14.45;;;;;;;-11.59;82.96;100642.23;1754988;82;21150;-81
2021/12/24 03:37:55;;;;;;;39.08;15.65;;;;;;;-11.59;83.16;100640.91;1754858;82;21333;-81
2021/12/24 03:41:00;;;;;;;31.07;15.28;;;;;;;-11.60;83.30;100633.91;1754995;82;21827;-79
2021/12/24 03:44:08;;;;;;;36.90;16.37;;;;;;;-11.62;83.44;100626.48;1754971;82;21170;-81
2021/12/24 03:47:16;;;;;;;40.12;14.15;;;;;;;-11.61;83.53;100630.85;1755093;82;21676;-81
2021/12/24 03:50:24;;;;;;;34.48;13.15;;;;;;;-11.56;83.63;100620.66;1755100;82;21259;-79
2021/12/24 03:56:51;;;;;;;34.90;13.95;;;;;;;-11.56;83.33;100615.38;1758866;79;21184;-81
2021/12/24 03:59:59;;;;;;;39.13;15.60;;;;;;;-11.59;83.42;100614.52;1794363;79;21268;-81
2021/12/24 04:03:06;;;;;;;29.92;13.85;;;;;;;-11.58;83.58;100606.14;1770815;81;21327;-79
2021/12/24 04:06:30;;;;;;;39.98;14.13;;;;;;;-11.58;83.71;100606.14;1793445;79;21248;-80
2021/12/24 04:10:06;;;;;;;26.45;12.95;;;;;;;-11.57;83.88;100599.99;1667852;85;21505;-80
2021/12/24 04:13:09;;;;;;;30.40;12.53;;;;;;;-11.51;84.04;100606.91;1802390;79;21236;-81
2021/12/24 04:16:14;;;;;;;24.65;13.08;;;;;;;-11.49;83.97;100600.69;1797363;79;21837;-81
2021/12/24 04:19:38;;;;;;;30.00;14.07;;;;;;;-11.48;83.87;100606.37;1770329;81;21693;-80
2021/12/24 04:25:53;;;;;;;27.00;12.03;;;;;;;-11.46;83.51;100601.09;1769660;81;21304;-80
2021/12/24 04:28:58;;;;;;;24.40;12.73;;;;;;;-11.46;83.42;100595.81;1788402;79;21307;-80
2021/12/24 04:32:15;;;;;;;26.35;12.85;;;;;;;-11.45;83.46;100595.77;1801985;79;21192;-81
2021/12/24 04:36:14;;;;;;;21.07;11.33;;;;;;;-11.42;83.70;100588.25;1803665;79;21149;-79
2021/12/24 04:51:48;;;;;;;24.82;12.58;;;;;;;-10.84;87.86;100576.39;1773046;79;21295;-81
2021/12/24 05:02:01;;;;;;;29.77;14.18;;;;;;;-10.94;87.78;100558.56;1765844;81;21794;-81
2021/12/24 05:04:57;;;;;;;27.17;13.65;;;;;;;-10.99;87.67;100556.94;1765671;81;21209;-81
2021/12/24 05:11:12;;;;;;;34.33;13.58;;;;;;;-11.11;87.50;100556.30;1803530;79;21252;-79
2021/12/24 05:14:17;;;;;;;28.40;13.10;;;;;;;-11.15;87.40;100554.66;1795084;79;21308;-81
2021/12/24 05:17:45;;;;;;;37.05;12.35;;;;;;;-11.19;87.33;100556.94;1800896;79;21294;-78
2021/12/24 05:24:00;;;;;;;23.83;11.38;;;;;;;-11.19;87.03;100547.69;1770490;80;21233;-80
2021/12/24 05:27:10;;;;;;;22.10;11.03;;;;;;;-11.23;86.79;100546.02;1797549;79;21849;-80
2021/12/24 05:30:14;;;;;;;25.37;8.78;;;;;;;-11.27;86.61;100550.95;1795058;79;21245;-78
2021/12/24 05:33:20;;;;;;;21.17;11.25;;;;;;;-11.29;86.58;100548.80;1782404;79;21245;-81
2021/12/24 05:36:25;;;;;;;24.80;11.03;;;;;;;-11.29;86.54;100539.56;1784071;79;21256;-81
2021/12/24 05:39:31;;;;;;;20.65;10.45;;;;;;;-11.28;86.57;100547.03;1793286;79;21169;-80
2021/12/24 05:42:38;;;;;;;18.67;9.33;;;;;;;-11.26;86.56;100544.75;1787539;79;21819;-81
2021/12/24 05:45:44;;;;;;;26.65;10.90;;;;;;;-11.24;86.63;100534.14;1789376;79;21256;-80
2021/12/24 05:48:52;;;;;;;28.90;12.07;;;;;;;-11.22;86.81;100525.30;1725973;81;22252;-79
2021/12/24 05:51:57;;;;;;;26.55;12.45;;;;;;;-11.16;87.03;100512.41;1737751;80;21307;-82
2021/12/24 05:55:04;;;;;;;22.40;11.38;;;;;;;-11.14;87.08;100503.55;1741669;80;21312;-79
2021/12/24 05:58:11;;;;;;;20.75;11.70;;;;;;;-11.15;87.09;100501.82;1789729;79;21334;-81
2021/12/24 06:01:18;;;;;;;27.90;12.70;;;;;;;-11.17;87.15;100489.09;1783330;78;21173;-81
2021/12/24 06:04:24;;;;;;;16.50;9.08;;;;;;;-11.17;87.29;100490.41;1775091;79;21267;-82
2021/12/24 06:07:30;;;;;;;21.75;11.90;;;;;;;-11.16;87.43;100488.17;1780820;79;21224;-83
2021/12/24 06:10:37;;;;;;;24.47;11.50;;;;;;;-11.13;87.48;100472.27;1778106;79;21176;-82
2021/12/24 06:13:44;;;;;;;29.95;13.18;;;;;;;-11.07;87.44;100467.28;1782327;79;21440;-82
2021/12/24 06:17:00;;;;;;;21.30;11.35;;;;;;;-11.05;87.39;100469.88;1770336;79;21196;-82
2021/12/24 06:19:58;;;;;;;24.70;11.48;;;;;;;-11.00;87.34;100471.98;1771584;79;21327;-81
2021/12/24 06:23:07;;;;;;;21.75;11.48;;;;;;;-10.95;87.18;100483.30;1778162;79;21474;-80
2021/12/24 06:26:12;;;;;;;15.00;8.83;;;;;;;-10.90;87.16;100478.77;1774863;79;21283;-82
2021/12/24 06:29:17;;;;;;;20.02;10.68;;;;;;;-10.84;87.05;100476.84;1784109;78;21457;-81
2021/12/24 06:32:22;;;;;;;28.87;11.28;;;;;;;-10.80;86.98;100476.31;1779070;79;21177;-79
2021/12/24 06:35:27;;;;;;;24.95;11.70;;;;;;;-10.73;86.85;100458.52;1782454;78;21134;-80
2021/12/24 06:38:32;;;;;;;22.58;11.78;;;;;;;-10.71;86.67;100454.94;1776595;78;21300;-79
2021/12/24 06:41:38;;;;;;;25.37;12.28;;;;;;;-10.63;86.56;100438.44;1782212;78;21292;-79
2021/12/24 06:44:44;;;;;;;25.12;11.08;;;;;;;-10.58;86.36;100435.67;1781699;78;21275;-79
2021/12/24 06:47:49;;;;;;;23.80;11.45;;;;;;;-10.50;86.27;100430.16;1776292;78;21612;-79
2021/12/24 06:50:55;;;;;;;20.68;10.95;;;;;;;-10.41;86.27;100420.66;1766402;78;21275;-80
2021/12/24 06:54:01;;;;;;;24.15;11.25;;;;;;;-10.29;86.31;100411.53;1764990;79;21499;-79
2021/12/24 06:57:14;;;;;;;22.75;11.55;;;;;;;-10.19;86.28;100424.41;1757181;80;21754;-80
2021/12/24 07:00:23;;;;;;;22.58;11.88;;;;;;;-10.08;86.22;100410.87;1778479;79;22379;-79
2021/12/24 07:03:33;;;;;;;22.65;11.78;;;;;;;-10.01;86.02;100416.87;1773401;79;21322;-82
2021/12/24 07:06:45;;;;;;;25.60;11.75;;;;;;;-9.94;86.00;100406.50;1759885;78;21359;-82
2021/12/24 07:09:50;;;;;;;26.48;12.37;;;;;;;-9.81;86.13;100401.25;1774283;79;21165;-84
2021/12/24 07:12:57;;;;;;;26.93;12.05;;;;;;;-9.64;85.80;100395.46;1775693;78;21346;-80
2021/12/24 07:16:07;;;;;;;24.72;12.75;;;;;;;-9.57;85.28;100381.97;1777578;78;21582;-83
2021/12/24 07:19:12;;;;;;;21.57;11.78;;;;;;;-9.47;84.96;100365.78;1751891;79;21335;-83
2021/12/24 07:22:18;;;;;;;26.10;13.90;;;;;;;-9.43;84.35;100347.09;1770519;79;21304;-83
2021/12/24 07:25:25;;;;;;;28.92;11.97;;;;;;;-9.38;83.88;100354.89;1752868;79;21277;-84
2021/12/24 07:28:34;;;;;;;26.85;13.22;;;;;;;-9.36;83.42;100351.30;1759503;79;21860;-81
2021/12/24 07:31:41;;;;;;;25.97;12.43;;;;;;;-9.34;83.16;100336.66;1761124;79;21763;-83
2021/12/24 07:34:49;;;;;;;23.65;11.33;;;;;;;-9.33;82.88;100339.72;1769097;80;21546;-85
2021/12/24 07:37:59;;;;;;;24.72;11.15;;;;;;;-9.29;82.91;100334.27;1779650;78;21357;-84
2021/12/24 07:41:18;;;;;;;22.17;11.90;;;;;;;-9.25;82.81;100335.03;1768295;78;21334;-81
2021/12/24 07:44:26;;;;;;;20.25;10.23;;;;;;;-9.22;82.85;100326.09;1778672;78;21672;-79
2021/12/24 07:47:38;;;;;;;23.80;12.53;;;;;;;-9.18;82.94;100324.63;1766114;78;21292;-79
2021/12/24 07:53:46;;;;;;;20.70;10.63;;;;;;;-9.02;83.15;100315.70;1773538;78;21204;-79
2021/12/24 07:56:53;;;;;;;21.25;10.15;;;;;;;-8.88;83.04;100320.53;1775107;78;22231;-78
2021/12/24 08:00:06;;;;;;;22.60;11.03;;;;;;;-8.81;82.55;100308.31;1773692;78;21238;-81
2021/12/24 08:03:13;;;;;;;20.12;10.55;;;;;;;-8.80;82.28;100306.09;1757205;79;21188;-79
2021/12/24 08:06:26;;;;;;;21.42;10.65;;;;;;;-8.75;82.35;100297.94;1777315;78;21510;-81
2021/12/24 08:09:37;;;;;;;19.15;8.88;;;;;;;-8.73;82.46;100288.63;1776591;79;21487;-81
2021/12/24 08:12:50;;;;;;;24.02;11.12;;;;;;;-8.73;82.85;100276.69;1740231;79;21650;-81
2021/12/24 08:15:55;;;;;;;22.75;11.93;;;;;;;-8.70;83.20;100280.11;1778932;79;22213;-82
2021/12/24 08:19:02;;;;;;;19.17;9.85;;;;;;;-8.63;83.44;100270.98;1776232;78;21157;-79
2021/12/24 08:22:10;;;;;;;18.77;9.50;;;;;;;-8.57;83.72;100266.77;1715829;81;21180;-81
2021/12/24 08:25:16;;;;;;;19.10;11.55;;;;;;;-8.53;83.92;100261.76;1732777;81;21766;-79
2021/12/24 08:28:28;;;;;;;19.10;10.48;;;;;;;-8.48;84.37;100262.05;1743266;80;21293;-82
2021/12/24 08:31:37;;;;;;;19.80;11.00;;;;;;;-8.45;84.86;100251.34;1710985;81;21468;-81
2021/12/24 08:34:48;;;;;;;18.45;9.98;;;;;;;-8.42;85.46;100241.92;1744765;81;21929;-81
2021/12/24 08:38:15;;;;;;;21.48;10.98;;;;;;;-8.36;85.87;100231.09;1720038;81;21681;-81
2021/12/24 08:41:20;;;;;;;23.67;11.00;;;;;;;-8.28;85.98;100226.30;1733856;79;21655;-81
2021/12/24 08:44:26;;;;;;;23.83;10.80;;;;;;;-8.24;86.37;100212.84;1741817;81;21161;-80
2021/12/24 08:47:32;;;;;;;20.15;10.65;;;;;;;-8.15;86.86;100203.66;1744125;81;21895;-81
2021/12/24 08:50:48;;;;;;;18.17;10.95;;;;;;;-8.04;87.23;100188.19;1737096;80;21900;-78
2021/12/24 08:53:56;;;;;;;18.73;10.85;;;;;;;-7.93;87.46;100178.91;1763963;79;21247;-79
2021/12/24 08:57:15;;;;;;;16.00;9.75;;;;;;;-7.80;87.76;100165.07;1770064;79;21495;-80
2021/12/24 09:00:23;;;;;;;19.65;11.10;;;;;;;-7.68;87.96;100155.70;1774401;78;21311;-79
2021/12/24 09:03:28;;;;;;;20.90;9.88;;;;;;;-7.58;88.17;100146.88;1773880;78;21210;-79
2021/12/24 09:06:35;;;;;;;21.42;10.40;;;;;;;-7.45;88.45;100141.44;1744766;80;21172;-79
2021/12/24 09:09:48;;;;;;;21.75;10.15;;;;;;;-7.34;88.62;100123.68;1742738;81;21821;-80
2021/12/24 09:12:56;;;;;;;18.40;9.70;;;;;;;-7.23;88.74;100117.44;1719395;82;21897;-80
2021/12/24 09:16:03;;;;;;;20.05;11.25;;;;;;;-7.13;88.96;100105.45;1722947;81;22188;-80
2021/12/24 09:19:13;;;;;;;23.70;11.73;;;;;;;-7.02;89.18;100087.67;1694210;82;21914;-80
2021/12/24 09:22:18;;;;;;;23.57;12.53;;;;;;;-6.95;89.53;100061.20;1708246;81;21801;-81
2021/12/24 09:25:24;;;;;;;21.37;11.43;;;;;;;-6.89;90.26;100052.07;1720458;81;21207;-81
2021/12/24 09:28:32;;;;;;;17.40;9.00;;;;;;;-6.84;91.26;100040.75;1771141;78;21844;-79
2021/12/24 09:31:40;;;;;;;20.00;8.43;;;;;;;-6.82;92.42;100030.44;1778550;78;21824;-81
2021/12/24 09:34:47;;;;;;;17.92;10.30;;;;;;;-6.71;93.46;100029.92;1715376;81;21212;-82
2021/12/24 09:37:52;;;;;;;22.75;12.10;;;;;;;-6.65;94.24;100006.99;1713587;82;21550;-80
2021/12/24 09:40:58;;;;;;;22.67;11.08;;;;;;;-6.58;95.17;100000.45;1712709;81;21514;-80
2021/12/24 09:44:03;;;;;;;19.80;10.78;;;;;;;-6.51;95.94;99994.34;1779375;78;21406;-81
2021/12/24 09:47:08;;;;;;;15.15;10.65;;;;;;;-6.42;96.58;99981.05;1777873;79;21750;-80
2021/12/24 09:50:15;;;;;;;16.37;9.98;;;;;;;-6.34;97.42;99965.09;1777481;78;22300;-78
2021/12/24 09:53:20;;;;;;;19.40;11.03;;;;;;;-6.24;98.49;99965.48;1744985;80;21296;-80
2021/12/24 09:56:25;;;;;;;18.10;10.38;;;;;;;-6.11;99.48;99951.07;1745013;79;21572;-79
2021/12/24 09:59:36;;;;;;;21.82;11.48;;;;;;;-5.98;100.00;99940.14;1782120;78;21339;-81
2021/12/24 10:02:49;;;;;;;16.62;9.63;;;;;;;-5.87;100.00;99920.44;1776692;78;21912;-80
2021/12/24 10:05:55;;;;;;;18.73;8.97;;;;;;;-5.81;100.00;99904.59;1779356;78;22098;-83
2021/12/24 10:09:08;;;;;;;18.32;9.93;;;;;;;-5.70;100.00;99904.38;1780684;78;21396;-83
2021/12/24 10:12:17;;;;;;;16.67;11.15;;;;;;;-5.61;100.00;99889.70;1713800;81;21225;-82
2021/12/24 10:15:25;;;;;;;23.52;9.93;;;;;;;-5.50;100.00;99883.33;1775848;78;22408;-83
2021/12/24 10:18:46;;;;;;;19.35;8.83;;;;;;;-5.36;100.00;99880.34;1779142;78;21284;-83
2021/12/24 10:22:17;;;;;;;14.13;8.73;;;;;;;-5.29;100.00;99870.58;1747127;81;21545;-82
2021/12/24 10:25:39;;;;;;;14.85;7.42;;;;;;;-5.23;100.00;99852.89;1739892;80;21357;-83
2021/12/24 10:28:46;;;;;;;9.95;6.33;;;;;;;-5.18;100.00;99827.30;1709498;82;21819;-82
2021/12/24 10:32:00;;;;;;;15.65;6.37;;;;;;;-5.13;100.00;99821.22;1774495;78;21281;-82
2021/12/24 10:35:05;;;;;;;13.95;8.63;;;;;;;-5.12;100.00;99813.63;1781652;78;21496;-81
2021/12/24 10:38:25;;;;;;;11.78;6.65;;;;;;;-5.12;100.00;99796.77;1772983;79;21307;-81
2021/12/24 10:41:30;;;;;;;11.60;7.78;;;;;;;-5.16;100.00;99788.09;1775182;79;21709;-82
2021/12/24 10:44:41;;;;;;;12.07;7.90;;;;;;;-5.21;100.00;99775.02;1780313;78;21323;-84
2021/12/24 10:47:48;;;;;;;15.98;8.38;;;;;;;-5.25;100.00;99779.29;1779860;78;21734;-81
2021/12/24 10:50:52;;;;;;;11.45;7.00;;;;;;;-5.26;100.00;99760.25;1741935;81;21613;-81
2021/12/24 10:54:13;;;;;;;14.18;7.85;;;;;;;-5.23;100.00;99745.38;1728011;81;21582;-81
2021/12/24 10:57:26;;;;;;;13.90;9.30;;;;;;;-5.19;100.00;99746.92;1759035;79;21685;-80
2021/12/24 11:00:46;;;;;;;12.68;7.00;;;;;;;-5.11;100.00;99723.33;1776220;78;21848;-80
2021/12/24 11:03:52;;;;;;;17.15;7.75;;;;;;;-5.06;100.00;99717.73;1743656;81;21729;-81
2021/12/24 11:06:56;;;;;;;15.43;7.97;;;;;;;-5.03;100.00;99710.41;1749875;80;21709;-81
2021/12/24 11:10:23;;;;;;;12.18;7.72;;;;;;;-5.02;100.00;99707.26;1716660;81;21299;-80
2021/12/24 11:13:32;;;;;;;10.68;6.78;;;;;;;-5.03;100.00;99690.41;1710734;81;21347;-81
2021/12/24 11:16:38;;;;;;;14.73;8.73;;;;;;;-5.01;100.00;99680.97;1713401;82;22000;-81
2021/12/24 11:20:02;;;;;;;15.88;9.00;;;;;;;-5.00;100.00;99676.86;1701510;82;21331;-81
2021/12/24 11:23:15;;;;;;;18.23;9.20;;;;;;;-4.98;100.00;99669.64;1698874;82;21209;-81
2021/12/24 11:26:27;;;;;;;18.60;9.85;;;;;;;-4.95;100.00;99649.91;1704674;82;21312;-81
2021/12/24 11:29:32;;;;;;;17.35;9.28;;;;;;;-4.92;100.00;99647.06;1699279;83;21301;-80
2021/12/24 11:32:37;;;;;;;15.93;8.83;;;;;;;-4.87;100.00;99633.44;1708480;83;21825;-81
2021/12/24 11:35:42;;;;;;;12.37;7.90;;;;;;;-4.84;100.00;99619.92;1706801;83;22229;-81
2021/12/24 11:38:55;;;;;;;15.88;9.90;;;;;;;-4.75;100.00;99611.30;1761117;80;21870;-80
2021/12/24 11:42:00;;;;;;;14.25;8.10;;;;;;;-4.69;100.00;99602.94;1725891;81;21676;-81
2021/12/24 11:45:06;;;;;;;14.95;7.87;;;;;;;-4.60;100.00;99595.68;1757114;80;21582;-80
2021/12/24 11:48:10;;;;;;;13.95;8.70;;;;;;;-4.51;100.00;99583.56;1750639;81;21300;-81
2021/12/24 11:51:21;;;;;;;14.87;8.00;;;;;;;-4.46;100.00;99556.94;1751372;80;21145;-82
2021/12/24 11:54:25;;;;;;;12.23;8.68;;;;;;;-4.39;100.00;99558.72;1749504;80;21154;-81
2021/12/24 11:57:30;;;;;;;12.07;7.47;;;;;;;-4.33;100.00;99557.45;1748132;80;21173;-81
2021/12/24 12:00:40;;;;;;;14.10;8.20;;;;;;;-4.28;100.00;99540.66;1757104;80;21310;-81
2021/12/24 12:03:55;;;;;;;13.32;7.65;;;;;;;-4.26;100.00;99562.79;1759392;81;21276;-81
2021/12/24 12:07:00;;;;;;;14.23;7.28;;;;;;;-4.26;100.00;99535.60;1760278;80;21648;-81
2021/12/24 12:10:05;;;;;;;15.13;8.63;;;;;;;-4.27;100.00;99538.38;1747375;81;21616;-81
2021/12/24 12:13:09;;;;;;;9.20;6.03;;;;;;;-4.26;100.00;99526.73;1756634;80;21822;-81
2021/12/24 12:16:17;;;;;;;15.32;8.68;;;;;;;-4.24;100.00;99518.98;1757490;80;21347;-80
2021/12/24 12:19:49;;;;;;;11.60;7.12;;;;;;;-4.21;100.00;99516.12;1754488;81;21169;-80
2021/12/24 12:22:57;;;;;;;15.70;7.95;;;;;;;-4.17;100.00;99503.42;1756881;81;21193;-80
2021/12/24 12:26:01;;;;;;;11.45;7.35;;;;;;;-4.13;100.00;99494.25;1761693;79;22209;-80
2021/12/24 12:29:36;;;;;;;13.05;6.47;;;;;;;-4.09;100.00;99494.42;1710401;82;21920;-81
2021/12/24 12:32:47;;;;;;;12.10;6.92;;;;;;;-4.06;100.00;99479.50;1778644;80;21299;-81
2021/12/24 12:36:02;;;;;;;11.08;6.92;;;;;;;-4.00;100.00;99470.21;1770808;79;21142;-81
2021/12/24 12:39:09;;;;;;;12.28;7.25;;;;;;;-3.94;100.00;99476.50;1770641;79;21292;-81
2021/12/24 12:42:16;;;;;;;14.07;7.53;;;;;;;-3.89;100.00;99467.20;1772447;78;21532;-81
2021/12/24 12:45:20;;;;;;;13.25;7.20;;;;;;;-3.82;100.00;99460.94;1768962;79;21280;-81
2021/12/24 12:48:26;;;;;;;12.73;7.83;;;;;;;-3.73;100.00;99451.43;1715278;82;22019;-80
2021/12/24 12:52:06;;;;;;;9.33;6.37;;;;;;;-3.67;100.00;99452.33;1762040;79;22269;-83
2021/12/24 12:55:12;;;;;;;;;;;;;;;-3.58;100.00;99452.17;1772234;79;21876;-83
2021/12/24 12:58:32;;;;;;;10.35;5.60;;;;;;;-3.53;100.00;99449.55;1766751;80;20288;-83
2021/12/24 13:01:36;;;;;;;;;;;;;;;-3.47;100.00;99452.29;1773138;80;21327;-84
2021/12/24 13:04:41;;;;;;;10.05;6.08;;;;;;;-3.46;100.00;99438.80;1769277;79;20264;-84
2021/12/24 13:07:48;;;;;;;9.70;6.28;;;;;;;-3.44;100.00;99424.83;1766558;80;21169;-80
2021/12/24 13:11:16;;;;;;;8.25;5.75;;;;;;;-3.42;100.00;99425.59;1735837;81;21431;-80
2021/12/24 13:14:22;;;;;;;9.20;5.33;;;;;;;-3.38;100.00;99419.55;1766627;79;21154;-82
2021/12/24 13:17:27;;;;;;;15.28;5.65;;;;;;;-3.35;100.00;99409.47;1751979;80;21165;-81
2021/12/24 13:20:55;;;;;;;7.87;4.70;;;;;;;-3.32;100.00;99391.50;1752457;80;21421;-80
2021/12/24 13:23:47;;;;;;;5.30;4.12;;;;;;;-3.29;100.00;99404.63;1767993;80;21770;-80
2021/12/24 13:26:52;;;;;;;9.20;5.00;;;;;;;-3.23;100.00;99393.03;1743098;80;21189;-81
2021/12/24 13:30:14;;;;;;;6.10;4.30;;;;;;;-3.17;100.00;99383.70;1681623;84;21486;-81
2021/12/24 13:33:19;;;;;;;10.72;4.97;;;;;;;-3.11;100.00;99389.92;1715646;82;21794;-81
2021/12/24 13:36:31;;;;;;;8.95;4.65;;;;;;;-3.06;100.00;99366.84;1707351;82;21196;-82
2021/12/24 13:39:36;;;;;;;7.75;4.85;;;;;;;-3.03;100.00;99351.92;1725740;81;21205;-81
2021/12/24 13:42:59;;;;;;;12.50;4.87;;;;;;;-3.01;100.00;99355.32;1724793;81;21603;-81
2021/12/24 13:46:08;;;;;;;5.92;4.00;;;;;;;-2.99;100.00;99348.05;1746695;81;21543;-81
2021/12/24 13:49:33;;;;;;;6.45;4.15;;;;;;;-2.96;100.00;99367.41;1739883;81;21454;-81
2021/12/24 13:55:52;;;;;;;6.40;4.17;;;;;;;-2.84;100.00;99330.35;1744280;81;21285;-81
2021/12/24 13:59:05;;;;;;;6.33;4.10;;;;;;;-2.79;100.00;99324.66;1745825;81;21170;-81
2021/12/24 14:02:18;;;;;;;5.20;3.42;;;;;;;-2.76;100.00;99313.73;1788423;79;21180;-81
2021/12/24 14:05:24;;;;;;;4.20;2.98;;;;;;;-2.71;100.00;99312.04;1756650;81;21257;-80
2021/12/24 14:08:32;;;;;;;4.33;3.30;;;;;;;-2.66;100.00;99293.80;1719319;83;21992;-80
2021/12/24 14:11:40;;;;;;;5.22;3.98;;;;;;;-2.60;100.00;99291.98;1775796;79;22168;-81
2021/12/24 14:15:05;;;;;;;3.22;2.72;;;;;;;-2.55;100.00;99283.11;1772335;79;21319;-81
2021/12/24 14:18:21;;;;;;;4.12;3.20;;;;;;;-2.46;100.00;99282.40;1779995;79;21213;-81
2021/12/24 14:21:45;;;;;;;5.00;2.80;;;;;;;-2.37;100.00;99279.01;1755522;80;21296;-81
2021/12/24 14:25:12;;;;;;;3.58;2.67;;;;;;;-2.29;100.00;99265.02;1796529;79;21177;-81
2021/12/24 14:28:24;;;;;;;4.70;3.35;;;;;;;-2.20;100.00;99236.66;1732872;82;21346;-80
2021/12/24 14:31:30;;;;;;;7.75;3.52;;;;;;;-2.14;100.00;99237.02;1740386;81;21170;-81
2021/12/24 14:35:01;;;;;;;5.45;3.47;;;;;;;-2.09;100.00;99229.46;1723228;82;21810;-81
2021/12/24 14:38:17;;;;;;;3.60;2.65;;;;;;;-2.03;100.00;99227.27;1717722;82;21689;-82
2021/12/24 14:41:24;;;;;;;6.08;3.60;;;;;;;-2.00;100.00;99217.65;1712534;83;21319;-82
2021/12/24 14:44:38;;;;;;;5.00;2.47;;;;;;;-1.98;100.00;99204.47;1725851;82;21303;-82
2021/12/24 14:47:44;;;;;;;3.00;2.62;;;;;;;-1.94;100.00;99200.57;1728398;81;21236;-82
2021/12/24 14:50:59;;;;;;;7.83;3.52;;;;;;;-1.90;100.00;99196.67;1740448;82;21849;-81
2021/12/24 14:54:09;;;;;;;5.70;3.52;;;;;;;-1.85;100.00;99197.64;1751841;81;21360;-81
2021/12/24 14:57:18;;;;;;;3.98;3.27;;;;;;;-1.78;100.00;99187.29;1724807;83;21343;-81
2021/12/24 15:00:24;;;;;;;4.37;2.52;;;;;;;-1.72;100.00;99197.50;1701595;83;21289;-80
2021/12/24 15:03:36;;;;;;;;;;;;;;;-1.66;100.00;99178.22;1756165;81;21300;-80
2021/12/24 15:06:43;;;;;;;;;;;;;;;-1.59;100.00;99192.34;1761441;81;20274;-81
2021/12/24 15:09:51;;;;;;;5.37;3.50;;;;;;;-1.54;100.00;99187.95;1752454;81;20303;-80
2021/12/24 15:13:08;;;;;;;4.97;3.55;;;;;;;-1.49;100.00;99182.20;1757120;81;21344;-80
2021/12/24 15:16:12;;;;;;;4.37;3.35;;;;;;;-1.43;100.00;99181.68;1741961;81;21719;-82
2021/12/24 15:19:18;;;;;;;4.22;3.50;;;;;;;-1.38;100.00;99170.92;1713115;82;21311;-80
2021/12/24 15:22:26;;;;;;;4.50;2.87;;;;;;;-1.34;100.00;99167.00;1759696;81;21347;-81
2021/12/24 15:25:32;;;;;;;4.12;3.27;;;;;;;-1.29;100.00;99163.45;1712987;80;21166;-80
2021/12/24 15:28:37;;;;;;;5.22;3.05;;;;;;;-1.25;100.00;99157.34;1696570;84;21415;-80
2021/12/24 15:31:45;;;;;;;6.33;3.20;;;;;;;-1.22;100.00;99149.04;1702350;84;21256;-79
2021/12/24 15:34:51;;;;;;;3.98;2.87;;;;;;;-1.19;100.00;99148.76;1703262;84;21375;-81
2021/12/24 15:37:57;;;;;;;5.00;2.52;;;;;;;-1.14;100.00;99136.30;1703047;84;21615;-79
2021/12/24 15:41:03;;;;;;;3.92;2.72;;;;;;;-1.10;100.00;99117.11;1706871;83;21174;-78
2021/12/24 15:44:12;;;;;;;2.62;1.90;;;;;;;-1.07;100.00;99115.52;1712826;84;21245;-77
2021/12/24 15:47:17;;;;;;;4.15;2.12;;;;;;;-1.04;100.00;99115.73;1708250;84;21324;-78
2021/12/24 15:50:22;;;;;;;3.47;1.92;;;;;;;-1.00;100.00;99112.30;1709667;83;21328;-79
2021/12/24 15:53:28;;;;;;;2.60;1.57;;;;;;;-1.00;100.00;99093.02;1703907;84;21335;-79
2021/12/24 15:56:34;;;;;;;1.92;1.52;;;;;;;-0.98;100.00;99083.02;1710047;83;21309;-79
2021/12/24 15:59:39;;;;;;;1.95;1.40;;;;;;;-0.96;100.00;99082.88;1708711;83;21304;-79